Time,TemperatureF,DewpointF,PressureIn,WindDirection,WindDirectionDegrees,WindSpeedMPH,WindSpeedGustMPH,Humidity,HourlyPrecipIn,Conditions,Clouds,dailyrainin,SolarRadiationWatts/m^2,SoftwareType,DateUTC
2013-04-09 00:23:00,50.0,44.0,-100.00,WNW,296,15.0,21.0,79,0.00,,,0.00,0.000000,,2013-04-09 04:23:00,
2013-04-09 00:33:00,50.0,44.0,-100.00,WNW,296,15.0,21.0,79,0.00,,,0.00,0.000000,,2013-04-09 04:33:00,
2013-04-09 00:43:00,50.0,44.0,-100.00,WNW,296,15.0,21.0,79,0.00,,,0.00,0.000000,,2013-04-09 04:43:00,
2013-04-09 00:53:00,50.0,44.0,-100.00,WNW,296,15.0,21.0,79,0.00,,,0.00,0.000000,,2013-04-09 04:53:00,
2013-04-09 01:02:00,50.0,44.0,-100.00,WNW,296,15.0,21.0,79,0.00,,,0.00,0.000000,,2013-04-09 05:02:00,
2013-04-09 01:22:00,50.0,44.0,-100.00,NW,304,11.0,21.0,81,0.00,,,0.00,0.000000,,2013-04-09 05:22:00,
2013-04-09 01:32:00,50.0,44.0,-100.00,NW,304,11.0,21.0,81,0.00,,,0.00,0.000000,,2013-04-09 05:32:00,
2013-04-09 01:43:00,50.0,44.0,-100.00,NW,304,11.0,21.0,81,0.00,,,0.00,0.000000,,2013-04-09 05:43:00,
2013-04-09 01:52:00,50.0,44.0,-100.00,NW,304,11.0,21.0,81,0.00,,,0.00,0.000000,,2013-04-09 05:52:00,
2013-04-09 02:02:00,50.0,44.0,-100.00,NW,304,11.0,21.0,81,0.00,,,0.00,0.000000,,2013-04-09 06:02:00,
2013-04-09 02:22:00,49.0,43.0,-100.00,North,352,5.0,17.0,80,0.00,,,0.00,0.000000,,2013-04-09 06:22:00,
2013-04-09 02:32:00,49.0,43.0,-100.00,North,352,5.0,17.0,80,0.00,,,0.00,0.000000,,2013-04-09 06:32:00,
2013-04-09 02:42:00,49.0,43.0,-100.00,North,352,5.0,17.0,80,0.00,,,0.00,0.000000,,2013-04-09 06:42:00,
2013-04-09 02:52:00,49.0,43.0,-100.00,North,352,5.0,17.0,80,0.00,,,0.00,0.000000,,2013-04-09 06:52:00,
2013-04-09 03:02:00,49.0,43.0,-100.00,North,352,5.0,17.0,80,0.00,,,0.00,0.000000,,2013-04-09 07:02:00,
2013-04-09 03:03:00,49.0,44.0,-100.00,ENE,65,5.0,12.0,84,0.00,,,0.00,0.000000,,2013-04-09 07:03:00,
2013-04-09 03:22:00,49.0,44.0,-100.00,ENE,65,5.0,12.0,84,0.00,,,0.00,0.000000,,2013-04-09 07:22:00,
2013-04-09 03:32:00,49.0,44.0,-100.00,ENE,65,5.0,12.0,84,0.00,,,0.00,0.000000,,2013-04-09 07:32:00,
2013-04-09 03:42:00,49.0,44.0,-100.00,ENE,65,5.0,12.0,84,0.00,,,0.00,0.000000,,2013-04-09 07:42:00,
2013-04-09 03:53:00,49.0,44.0,-100.00,ENE,65,5.0,12.0,84,0.00,,,0.00,0.000000,,2013-04-09 07:53:00,
2013-04-09 04:32:00,48.0,45.0,-100.00,NE,56,4.0,12.0,90,0.00,,,0.00,0.000000,,2013-04-09 08:32:00,
2013-04-09 04:42:00,48.0,45.0,-100.00,NE,56,4.0,12.0,90,0.00,,,0.00,0.000000,,2013-04-09 08:42:00,
2013-04-09 04:52:00,48.0,45.0,-100.00,NE,56,4.0,12.0,90,0.00,,,0.00,0.000000,,2013-04-09 08:52:00,
2013-04-09 05:02:00,48.0,45.0,-100.00,NE,56,4.0,12.0,90,0.00,,,0.00,0.000000,,2013-04-09 09:02:00,
2013-04-09 05:03:00,48.0,45.0,-100.00,NNE,33,4.0,10.0,90,0.00,,,0.00,0.000000,,2013-04-09 09:03:00,
2013-04-09 05:23:00,48.0,45.0,-100.00,NNE,33,4.0,10.0,90,0.00,,,0.00,0.000000,,2013-04-09 09:23:00,
2013-04-09 05:33:00,48.0,45.0,-100.00,NNE,33,4.0,10.0,90,0.00,,,0.00,0.000000,,2013-04-09 09:33:00,
2013-04-09 05:44:00,48.0,45.0,-100.00,NNE,33,4.0,10.0,90,0.00,,,0.00,0.000000,,2013-04-09 09:44:00,
2013-04-09 05:53:00,48.0,45.0,-100.00,NNE,33,4.0,10.0,90,0.00,,,0.00,0.000000,,2013-04-09 09:53:00,
2013-04-09 06:24:00,48.0,45.0,-100.00,North,7,3.0,9.0,90,0.00,,,0.00,0.000000,,2013-04-09 10:24:00,
2013-04-09 06:33:00,48.0,45.0,-100.00,North,7,3.0,9.0,90,0.00,,,0.00,0.000000,,2013-04-09 10:33:00,
2013-04-09 06:43:00,48.0,45.0,-100.00,North,7,3.0,9.0,90,0.00,,,0.00,0.000000,,2013-04-09 10:43:00,
2013-04-09 06:54:00,48.0,45.0,-100.00,North,7,3.0,9.0,90,0.00,,,0.00,0.000000,,2013-04-09 10:54:00,
2013-04-09 07:02:00,48.0,45.0,-100.00,North,7,3.0,9.0,90,0.00,,,0.00,0.000000,,2013-04-09 11:02:00,
2013-04-09 07:22:00,47.0,45.0,-100.00,NNE,15,3.0,10.0,92,0.00,,,0.00,0.000000,,2013-04-09 11:22:00,
2013-04-09 07:32:00,47.0,45.0,-100.00,NNE,15,3.0,10.0,92,0.00,,,0.00,0.000000,,2013-04-09 11:32:00,
2013-04-09 07:43:00,47.0,45.0,-100.00,NNE,15,3.0,10.0,92,0.00,,,0.00,0.000000,,2013-04-09 11:43:00,
2013-04-09 07:52:00,47.0,45.0,-100.00,NNE,15,3.0,10.0,92,0.00,,,0.00,0.000000,,2013-04-09 11:52:00,
2013-04-09 08:02:00,47.0,45.0,-100.00,NNE,15,3.0,10.0,92,0.00,,,0.00,0.000000,,2013-04-09 12:02:00,
2013-04-09 08:03:00,53.0,48.0,-100.00,North,356,3.0,7.0,84,0.00,,,0.00,65.000000,,2013-04-09 12:03:00,
2013-04-09 08:22:00,53.0,48.0,-100.00,North,356,3.0,7.0,84,0.00,,,0.00,65.000000,,2013-04-09 12:22:00,
2013-04-09 08:33:00,53.0,48.0,-100.00,North,356,3.0,7.0,84,0.00,,,0.00,65.000000,,2013-04-09 12:33:00,
2013-04-09 08:43:00,53.0,48.0,-100.00,North,356,3.0,7.0,84,0.00,,,0.00,65.000000,,2013-04-09 12:43:00,
2013-04-09 08:53:00,53.0,48.0,-100.00,North,356,3.0,7.0,84,0.00,,,0.00,65.000000,,2013-04-09 12:53:00,
2013-04-09 09:03:00,56.0,47.0,-100.00,NNW,334,4.0,8.0,73,0.00,,,0.00,260.000000,,2013-04-09 13:03:00,
2013-04-09 09:33:00,56.0,47.0,-100.00,NNW,334,4.0,8.0,73,0.00,,,0.00,260.000000,,2013-04-09 13:33:00,
2013-04-09 09:43:00,56.0,47.0,-100.00,NNW,334,4.0,8.0,73,0.00,,,0.00,260.000000,,2013-04-09 13:43:00,
2013-04-09 09:53:00,56.0,47.0,-100.00,NNW,334,4.0,8.0,73,0.00,,,0.00,260.000000,,2013-04-09 13:53:00,
2013-04-09 10:33:00,60.0,48.0,-100.00,North,353,2.0,6.0,64,0.00,,,0.00,465.000000,,2013-04-09 14:33:00,
2013-04-09 10:43:00,60.0,48.0,-100.00,North,353,2.0,6.0,64,0.00,,,0.00,465.000000,,2013-04-09 14:43:00,
2013-04-09 10:52:00,60.0,48.0,-100.00,North,353,2.0,6.0,64,0.00,,,0.00,465.000000,,2013-04-09 14:52:00,
2013-04-09 11:02:00,60.0,48.0,-100.00,North,353,2.0,6.0,64,0.00,,,0.00,465.000000,,2013-04-09 15:02:00,
2013-04-09 11:03:00,62.0,50.0,-100.00,WNW,286,4.0,9.0,64,0.00,,,0.00,638.000000,,2013-04-09 15:03:00,
2013-04-09 11:34:00,62.0,50.0,-100.00,WNW,286,4.0,9.0,64,0.00,,,0.00,638.000000,,2013-04-09 15:34:00,
2013-04-09 11:44:00,62.0,50.0,-100.00,WNW,286,4.0,9.0,64,0.00,,,0.00,638.000000,,2013-04-09 15:44:00,
2013-04-09 11:54:00,62.0,50.0,-100.00,WNW,286,4.0,9.0,64,0.00,,,0.00,638.000000,,2013-04-09 15:54:00,
2013-04-09 12:34:00,67.0,49.0,-100.00,NNW,336,3.0,8.0,53,0.00,,,0.00,836.000000,,2013-04-09 16:34:00,
2013-04-09 12:43:00,67.0,49.0,-100.00,NNW,336,3.0,8.0,53,0.00,,,0.00,836.000000,,2013-04-09 16:43:00,
2013-04-09 12:54:00,67.0,49.0,-100.00,NNW,336,3.0,8.0,53,0.00,,,0.00,836.000000,,2013-04-09 16:54:00,
2013-04-09 13:02:00,67.0,49.0,-100.00,NNW,336,3.0,8.0,53,0.00,,,0.00,836.000000,,2013-04-09 17:02:00,
2013-04-09 13:33:00,67.0,47.0,-100.00,WNW,287,4.0,10.0,48,0.00,,,0.00,915.000000,,2013-04-09 17:33:00,
2013-04-09 13:43:00,67.0,47.0,-100.00,WNW,287,4.0,10.0,48,0.00,,,0.00,915.000000,,2013-04-09 17:43:00,
2013-04-09 13:54:00,67.0,47.0,-100.00,WNW,287,4.0,10.0,48,0.00,,,0.00,915.000000,,2013-04-09 17:54:00,
2013-04-09 14:02:00,67.0,47.0,-100.00,WNW,287,4.0,10.0,48,0.00,,,0.00,915.000000,,2013-04-09 18:02:00,
2013-04-09 14:03:00,71.0,46.0,-100.00,WNW,301,5.0,11.0,41,0.00,,,0.00,943.000000,,2013-04-09 18:03:00,
2013-04-09 14:33:00,71.0,46.0,-100.00,WNW,301,5.0,11.0,41,0.00,,,0.00,943.000000,,2013-04-09 18:33:00,
2013-04-09 14:43:00,71.0,46.0,-100.00,WNW,301,5.0,11.0,41,0.00,,,0.00,943.000000,,2013-04-09 18:43:00,
2013-04-09 14:53:00,71.0,46.0,-100.00,WNW,301,5.0,11.0,41,0.00,,,0.00,943.000000,,2013-04-09 18:53:00,
2013-04-09 15:03:00,72.0,43.0,-100.00,NW,324,6.0,12.0,35,0.00,,,0.00,932.000000,,2013-04-09 19:03:00,
2013-04-09 15:53:00,72.0,43.0,-100.00,NW,324,6.0,12.0,35,0.00,,,0.00,932.000000,,2013-04-09 19:53:00,
2013-04-09 16:03:00,74.0,44.0,-100.00,WNW,303,4.0,12.0,34,0.00,,,0.00,831.000000,,2013-04-09 20:03:00,
2013-04-09 16:34:00,74.0,44.0,-100.00,WNW,303,4.0,12.0,34,0.00,,,0.00,831.000000,,2013-04-09 20:34:00,
2013-04-09 16:44:00,74.0,44.0,-100.00,WNW,303,4.0,12.0,34,0.00,,,0.00,831.000000,,2013-04-09 20:44:00,
2013-04-09 16:53:00,74.0,44.0,-100.00,WNW,303,4.0,12.0,34,0.00,,,0.00,831.000000,,2013-04-09 20:53:00,
2013-04-09 17:03:00,69.0,39.0,-100.00,NW,312,7.0,11.0,34,0.00,,,0.00,609.000000,,2013-04-09 21:03:00,
2013-04-09 17:33:00,69.0,39.0,-100.00,NW,312,7.0,11.0,34,0.00,,,0.00,609.000000,,2013-04-09 21:33:00,
2013-04-09 17:43:00,69.0,39.0,-100.00,NW,312,7.0,11.0,34,0.00,,,0.00,609.000000,,2013-04-09 21:43:00,
2013-04-09 17:53:00,69.0,39.0,-100.00,NW,312,7.0,11.0,34,0.00,,,0.00,609.000000,,2013-04-09 21:53:00,
2013-04-09 18:03:00,71.0,43.0,-100.00,WSW,258,3.0,11.0,37,0.00,,,0.00,420.000000,,2013-04-09 22:03:00,
2013-04-09 18:23:00,71.0,43.0,-100.00,WSW,258,3.0,11.0,37,0.00,,,0.00,420.000000,,2013-04-09 22:23:00,
2013-04-09 18:33:00,71.0,43.0,-100.00,WSW,258,3.0,11.0,37,0.00,,,0.00,420.000000,,2013-04-09 22:33:00,
2013-04-09 18:43:00,71.0,43.0,-100.00,WSW,258,3.0,11.0,37,0.00,,,0.00,420.000000,,2013-04-09 22:43:00,
2013-04-09 18:54:00,71.0,43.0,-100.00,WSW,258,3.0,11.0,37,0.00,,,0.00,420.000000,,2013-04-09 22:54:00,
2013-04-09 19:03:00,63.0,43.0,-100.00,East,88,3.0,8.0,48,0.00,,,-99.99,161.000000,,2013-04-09 23:03:00,
2013-04-09 19:23:00,63.0,43.0,-100.00,East,88,3.0,8.0,48,0.00,,,-99.99,161.000000,,2013-04-09 23:23:00,
2013-04-09 19:33:00,63.0,43.0,-100.00,East,88,3.0,8.0,48,0.00,,,-99.99,161.000000,,2013-04-09 23:33:00,
2013-04-09 19:43:00,63.0,43.0,-100.00,East,88,3.0,8.0,48,0.00,,,-99.99,161.000000,,2013-04-09 23:43:00,
2013-04-09 19:53:00,63.0,43.0,-100.00,East,88,3.0,8.0,48,0.00,,,-99.99,161.000000,,2013-04-09 23:53:00,
2013-04-09 20:33:00,60.0,44.0,-100.00,NNW,332,5.0,9.0,56,0.00,,,0.00,32.000000,,2013-04-10 00:33:00,
2013-04-09 20:43:00,60.0,44.0,-100.00,NNW,332,5.0,9.0,56,0.00,,,0.00,32.000000,,2013-04-10 00:43:00,
2013-04-09 20:53:00,60.0,44.0,-100.00,NNW,332,5.0,9.0,56,0.00,,,0.00,32.000000,,2013-04-10 00:53:00,
2013-04-09 21:02:00,60.0,44.0,-100.00,NNW,332,5.0,9.0,56,0.00,,,0.00,32.000000,,2013-04-10 01:02:00,
2013-04-09 21:23:00,58.0,46.0,-100.00,WNW,290,13.0,21.0,65,0.00,,,0.00,0.000000,,2013-04-10 01:23:00,
2013-04-09 21:33:00,58.0,46.0,-100.00,WNW,290,13.0,21.0,65,0.00,,,0.00,0.000000,,2013-04-10 01:33:00,
2013-04-09 21:43:00,58.0,46.0,-100.00,WNW,290,13.0,21.0,65,0.00,,,0.00,0.000000,,2013-04-10 01:43:00,
2013-04-09 21:53:00,58.0,46.0,-100.00,WNW,290,13.0,21.0,65,0.00,,,0.00,0.000000,,2013-04-10 01:53:00,
2013-04-09 22:02:00,58.0,46.0,-100.00,WNW,290,13.0,21.0,65,0.00,,,0.00,0.000000,,2013-04-10 02:02:00,
2013-04-09 22:03:00,57.0,47.0,-100.00,WNW,293,13.0,25.0,68,0.00,,,0.00,0.000000,,2013-04-10 02:03:00,
2013-04-09 22:33:00,57.0,47.0,-100.00,WNW,293,13.0,25.0,68,0.00,,,0.00,0.000000,,2013-04-10 02:33:00,
2013-04-09 22:43:00,57.0,47.0,-100.00,WNW,293,13.0,25.0,68,0.00,,,0.00,0.000000,,2013-04-10 02:43:00,
2013-04-09 22:53:00,57.0,47.0,-100.00,WNW,293,13.0,25.0,68,0.00,,,0.00,0.000000,,2013-04-10 02:53:00,
2013-04-09 23:03:00,55.0,47.0,-100.00,NW,310,11.0,27.0,73,0.00,,,0.00,0.000000,,2013-04-10 03:03:00,
2013-04-09 23:22:00,55.0,47.0,-100.00,NW,310,11.0,27.0,73,0.00,,,0.00,0.000000,,2013-04-10 03:22:00,
2013-04-09 23:33:00,55.0,47.0,-100.00,NW,310,11.0,27.0,73,0.00,,,0.00,0.000000,,2013-04-10 03:33:00,
2013-04-09 23:43:00,55.0,47.0,-100.00,NW,310,11.0,27.0,73,0.00,,,0.00,0.000000,,2013-04-10 03:43:00,
2013-04-09 23:53:00,55.0,47.0,-100.00,NW,310,11.0,27.0,73,0.00,,,0.00,0.000000,,2013-04-10 03:53:00,